createdAt,value
2024-03-02T00:02:59.850Z,6.53
2024-03-02T00:05:55.447Z,6.52
2024-03-02T00:08:44.158Z,6.52
2024-03-02T00:11:37.468Z,6.52
2024-03-02T00:14:26.163Z,6.53
2024-03-02T00:17:22.456Z,6.53
2024-03-02T00:20:11.663Z,6.57
2024-03-02T00:23:13.960Z,6.57
2024-03-02T00:26:03.250Z,6.56
2024-03-02T00:28:58.016Z,6.54
2024-03-02T00:31:50.077Z,6.53
2024-03-02T00:34:38.701Z,6.53
2024-03-02T00:37:27.312Z,6.54
2024-03-02T00:40:20.270Z,6.54
2024-03-02T00:43:39.402Z,6.55
2024-03-02T00:46:34.816Z,6.57
2024-03-02T00:49:25.119Z,6.58
2024-03-02T00:52:14.259Z,6.59
2024-03-02T00:55:03.005Z,6.59
2024-03-02T00:57:51.805Z,6.57
2024-03-02T01:00:40.706Z,6.55
2024-03-02T01:03:29.466Z,6.53
2024-03-02T01:06:18.311Z,6.51
2024-03-02T01:09:07.005Z,6.48
2024-03-02T01:11:55.586Z,6.48
2024-03-02T01:14:44.222Z,6.49
2024-03-02T01:17:32.844Z,6.48
2024-03-02T01:20:21.463Z,6.48
2024-03-02T01:23:10.074Z,6.50
2024-03-02T01:25:58.882Z,6.53
2024-03-02T01:28:47.789Z,6.55
2024-03-02T01:31:36.796Z,6.55
2024-03-02T01:34:25.996Z,6.57
2024-03-02T01:37:14.621Z,6.54
2024-03-02T01:40:04.030Z,6.52
2024-03-02T01:42:55.297Z,6.50
2024-03-02T01:45:44.212Z,6.49
2024-03-02T01:48:32.944Z,6.52
2024-03-02T01:51:22.573Z,6.55
2024-03-02T01:54:11.352Z,6.56
2024-03-02T01:57:00.541Z,6.56
2024-03-02T01:59:49.620Z,6.54
2024-03-02T02:03:06.039Z,6.51
2024-03-02T02:05:55.124Z,6.48
2024-03-02T02:08:43.830Z,6.48
2024-03-02T02:11:32.644Z,6.46
2024-03-02T02:14:21.381Z,6.46
2024-03-02T02:17:10.194Z,6.46
2024-03-02T02:19:58.822Z,6.45
2024-03-02T02:23:04.007Z,6.42
2024-03-02T02:25:52.812Z,6.39
2024-03-02T02:28:47.972Z,6.34
2024-03-02T02:31:43.279Z,6.31
2024-03-02T02:34:31.914Z,6.28
2024-03-02T02:37:20.641Z,6.25
2024-03-02T02:40:10.233Z,6.21
2024-03-02T02:43:00.535Z,6.17
2024-03-02T02:45:49.461Z,6.15
2024-03-02T02:48:38.221Z,6.15
2024-03-02T02:51:27.474Z,6.11
2024-03-02T02:54:16.325Z,6.09
2024-03-02T02:57:05.112Z,6.08
2024-03-02T02:59:53.723Z,6.11
2024-03-02T03:02:43.186Z,6.14
2024-03-02T03:05:31.787Z,6.18
2024-03-02T03:08:20.427Z,6.23
2024-03-02T03:11:09.121Z,6.24
2024-03-02T03:13:57.802Z,6.26
2024-03-02T03:16:49.690Z,6.24
2024-03-02T03:19:39.780Z,6.18
2024-03-02T03:22:28.494Z,6.15
2024-03-02T03:25:17.188Z,6.11
2024-03-02T03:28:05.957Z,6.10
2024-03-02T03:30:54.661Z,6.09
2024-03-02T03:33:43.335Z,6.08
2024-03-02T03:36:32.097Z,6.06
2024-03-02T03:39:20.763Z,6.05
2024-03-02T03:42:09.433Z,6.03
2024-03-02T03:44:58.068Z,5.98
2024-03-02T03:47:46.743Z,5.94
2024-03-02T03:50:35.384Z,5.93
2024-03-02T03:53:25.461Z,5.92
2024-03-02T03:56:14.577Z,5.92
2024-03-02T03:59:03.316Z,5.92
2024-03-02T04:01:52.089Z,5.95
2024-03-02T04:04:40.855Z,5.98
2024-03-02T04:07:30.468Z,6.02
2024-03-02T04:10:19.189Z,5.99
2024-03-02T04:13:08.542Z,5.99
2024-03-02T04:15:57.272Z,5.97
2024-03-02T04:18:46.049Z,5.98
2024-03-02T04:21:34.777Z,5.98
2024-03-02T04:24:23.443Z,5.98
2024-03-02T04:27:12.098Z,6.00
2024-03-02T04:30:01.530Z,6.03
2024-03-02T04:32:50.455Z,6.07
2024-03-02T04:35:39.245Z,6.05
2024-03-02T04:38:28.941Z,5.98
2024-03-02T04:41:18.711Z,5.94
2024-03-02T04:44:09.170Z,5.88
2024-03-02T04:46:57.852Z,5.84
2024-03-02T04:49:47.647Z,5.82
2024-03-02T04:52:37.896Z,5.78
2024-03-02T04:55:46.502Z,5.72
2024-03-02T04:58:35.233Z,5.67
2024-03-02T05:01:24.118Z,5.65
2024-03-02T05:04:12.923Z,5.64
2024-03-02T05:07:01.515Z,5.67
2024-03-02T05:09:50.238Z,5.65
2024-03-02T05:12:45.313Z,5.63
2024-03-02T05:15:34.216Z,5.61
2024-03-02T05:18:25.012Z,5.57
2024-03-02T05:21:13.786Z,5.55
2024-03-02T05:24:02.463Z,5.50
2024-03-02T05:26:51.106Z,5.46
2024-03-02T05:29:39.830Z,5.46
2024-03-02T05:32:28.902Z,5.42
2024-03-02T05:35:17.501Z,5.38
2024-03-02T05:38:06.280Z,5.33
2024-03-02T05:40:54.868Z,5.29
2024-03-02T05:43:43.581Z,5.28
2024-03-02T05:46:32.278Z,5.28
2024-03-02T05:49:21.357Z,5.27
2024-03-02T05:52:10.022Z,5.30
2024-03-02T05:54:58.744Z,5.29
2024-03-02T05:58:05.719Z,5.28
2024-03-02T06:00:55.818Z,5.27
2024-03-02T06:03:44.965Z,5.28
2024-03-02T06:06:35.067Z,5.28
2024-03-02T06:09:25.964Z,5.29
2024-03-02T06:12:14.690Z,5.32
2024-03-02T06:15:03.375Z,5.37
2024-03-02T06:17:51.985Z,5.40
2024-03-02T06:20:40.759Z,5.44
2024-03-02T06:23:29.508Z,5.46
2024-03-02T06:26:20.565Z,5.50
2024-03-02T06:29:10.395Z,5.51
2024-03-02T06:31:59.038Z,5.54
2024-03-02T06:34:47.683Z,5.57
2024-03-02T06:37:36.421Z,5.60
2024-03-02T06:40:25.027Z,5.65
2024-03-02T06:43:13.826Z,5.68
2024-03-02T06:46:02.794Z,5.71
2024-03-02T06:48:51.516Z,5.73
2024-03-02T06:51:40.315Z,5.77
2024-03-02T06:54:29.173Z,5.80
2024-03-02T06:57:18.343Z,5.83
2024-03-02T07:00:10.061Z,5.90
2024-03-02T07:03:01.668Z,5.96
2024-03-02T07:05:50.309Z,6.02
2024-03-02T07:08:39.084Z,6.08
2024-03-02T07:11:27.945Z,6.13
2024-03-02T07:14:16.642Z,6.21
2024-03-02T07:17:05.252Z,6.26
2024-03-02T07:19:54.023Z,6.26
2024-03-02T07:22:44.935Z,6.27
2024-03-02T07:28:25.637Z,6.28
2024-03-02T07:31:21.151Z,6.33
2024-03-02T07:34:33.557Z,6.41
2024-03-02T07:37:39.915Z,6.50
2024-03-02T07:40:34.236Z,6.58
2024-03-02T07:43:36.469Z,6.63
2024-03-02T07:46:26.703Z,6.69
2024-03-02T07:49:18.133Z,6.74
2024-03-02T07:52:07.248Z,6.82
2024-03-02T07:54:58.915Z,6.88
2024-03-02T07:57:47.793Z,6.94
2024-03-02T08:00:36.993Z,6.98
2024-03-02T08:03:26.341Z,6.99
2024-03-02T08:06:18.637Z,7.01
2024-03-02T08:09:10.975Z,7.04
2024-03-02T08:11:59.629Z,7.06
2024-03-02T08:14:48.786Z,7.10
2024-03-02T08:17:38.433Z,7.16
2024-03-02T08:20:29.863Z,7.24
2024-03-02T08:23:18.882Z,7.34
2024-03-02T08:26:08.336Z,7.40
2024-03-02T08:28:57.434Z,7.43
2024-03-02T08:31:46.061Z,7.46
2024-03-02T08:34:36.596Z,7.52
2024-03-02T08:37:25.310Z,7.59
2024-03-02T08:40:17.649Z,7.61
2024-03-02T08:43:08.256Z,7.68
2024-03-02T08:45:57.138Z,7.73
2024-03-02T08:48:46.105Z,7.80
2024-03-02T08:51:34.847Z,7.85
2024-03-02T08:54:23.651Z,7.85
2024-03-02T08:57:12.469Z,7.87
2024-03-02T09:00:01.530Z,7.94
2024-03-02T09:02:50.232Z,8.00
2024-03-02T09:05:38.990Z,8.13
2024-03-02T09:08:27.833Z,8.22
2024-03-02T09:11:16.622Z,8.34
2024-03-02T09:14:06.284Z,8.42
2024-03-02T09:16:54.941Z,8.46
2024-03-02T09:19:43.808Z,8.53
2024-03-02T09:22:33.343Z,8.59
2024-03-02T09:25:22.088Z,8.62
2024-03-02T09:28:12.153Z,8.69
2024-03-02T09:31:02.322Z,8.77
2024-03-02T09:33:51.348Z,8.85
2024-03-02T09:36:40.022Z,8.95
2024-03-02T09:39:28.682Z,9.06
2024-03-02T09:42:17.373Z,9.16
2024-03-02T09:45:07.631Z,9.19
2024-03-02T09:47:56.357Z,9.23
2024-03-02T09:50:45.392Z,9.22
2024-03-02T09:53:35.510Z,9.19
2024-03-02T09:56:24.337Z,9.16
2024-03-02T09:59:14.639Z,9.17
2024-03-02T10:02:04.183Z,9.22
2024-03-02T10:04:52.805Z,9.29
2024-03-02T10:07:41.979Z,9.34
2024-03-02T10:10:41.526Z,9.39
2024-03-02T10:13:30.889Z,9.50
2024-03-02T10:16:19.465Z,9.61
2024-03-02T10:19:25.296Z,9.70
2024-03-02T10:22:15.083Z,9.78
2024-03-02T10:27:52.945Z,9.89
2024-03-02T10:30:41.631Z,9.89
2024-03-02T10:33:30.220Z,9.91
2024-03-02T10:36:19.216Z,9.84
2024-03-02T10:39:08.945Z,9.83
2024-03-02T10:41:58.184Z,9.87
2024-03-02T10:44:47.830Z,9.83
2024-03-02T10:47:38.826Z,9.82
2024-03-02T10:50:27.455Z,9.82
2024-03-02T10:53:16.054Z,9.77
2024-03-02T10:56:10.043Z,9.75
2024-03-02T10:59:05.176Z,9.69
2024-03-02T11:02:00.270Z,9.61
2024-03-02T11:04:51.378Z,9.56
2024-03-02T11:07:41.700Z,9.49
2024-03-02T11:10:55.604Z,9.47
2024-03-02T11:13:51.386Z,9.48
2024-03-02T11:16:42.561Z,9.49
2024-03-02T11:19:31.662Z,9.54
2024-03-02T11:22:21.031Z,9.61
2024-03-02T11:25:25.591Z,9.64
2024-03-02T11:28:14.311Z,9.58
2024-03-02T11:31:03.063Z,9.53
2024-03-02T11:33:52.068Z,9.49
2024-03-02T11:36:40.733Z,9.46
2024-03-02T11:39:30.094Z,9.44
2024-03-02T11:42:19.361Z,9.46
2024-03-02T11:45:10.112Z,9.47
2024-03-02T11:47:59.541Z,9.54
2024-03-02T11:50:51.653Z,9.61
2024-03-02T11:53:41.623Z,9.64
2024-03-02T11:56:32.523Z,9.66
2024-03-02T11:59:22.096Z,9.70
2024-03-02T12:02:17.306Z,9.73
2024-03-02T12:05:06.255Z,9.80
2024-03-02T12:07:59.030Z,9.82
2024-03-02T12:11:02.171Z,9.82
2024-03-02T12:13:59.188Z,9.83
2024-03-02T12:16:47.766Z,9.88
2024-03-02T12:19:36.563Z,9.92
2024-03-02T12:22:25.312Z,9.94
2024-03-02T12:25:14.405Z,9.96
2024-03-02T12:28:04.274Z,10.00
2024-03-02T12:30:53.281Z,10.01
2024-03-02T12:33:43.041Z,9.99
2024-03-02T12:36:32.378Z,10.02
2024-03-02T12:39:23.289Z,10.04
2024-03-02T12:42:12.221Z,10.09
2024-03-02T12:45:01.084Z,10.12
2024-03-02T12:47:49.938Z,10.14
2024-03-02T12:50:38.719Z,10.16
2024-03-02T12:53:27.666Z,10.15
2024-03-02T12:56:16.690Z,10.15
2024-03-02T12:59:07.067Z,10.11
2024-03-02T13:01:59.021Z,10.13
2024-03-02T13:04:57.616Z,10.14
2024-03-02T13:07:49.028Z,10.14
2024-03-02T13:10:39.077Z,10.13
2024-03-02T13:13:27.769Z,10.12
2024-03-02T13:16:17.510Z,10.13
2024-03-02T13:19:09.295Z,10.16
2024-03-02T13:21:58.929Z,10.17
2024-03-02T13:24:47.710Z,10.20
2024-03-02T13:27:36.501Z,10.23
2024-03-02T13:30:25.168Z,10.23
2024-03-02T13:33:14.130Z,10.24
2024-03-02T13:36:04.079Z,10.25
2024-03-02T13:38:52.835Z,10.29
2024-03-02T13:41:41.540Z,10.32
2024-03-02T13:44:30.223Z,10.34
2024-03-02T13:47:19.084Z,10.36
2024-03-02T13:50:08.516Z,10.37
2024-03-02T13:52:57.989Z,10.34
2024-03-02T13:55:47.268Z,10.31
2024-03-02T13:58:36.050Z,10.29
2024-03-02T14:01:25.056Z,10.26
2024-03-02T14:04:13.889Z,10.25
2024-03-02T14:07:03.236Z,10.27
2024-03-02T14:09:52.022Z,10.28
2024-03-02T14:12:42.259Z,10.30
2024-03-02T14:15:32.586Z,10.32
2024-03-02T14:18:22.560Z,10.34
2024-03-02T14:21:11.754Z,10.34
2024-03-02T14:24:00.528Z,10.30
2024-03-02T14:26:49.216Z,10.28
2024-03-02T14:29:39.111Z,10.25
2024-03-02T14:32:28.066Z,10.23
2024-03-02T14:35:17.633Z,10.22
2024-03-02T14:38:06.325Z,10.23
2024-03-02T14:40:55.057Z,10.22
2024-03-02T14:43:45.879Z,10.22
2024-03-02T14:46:34.950Z,10.22
2024-03-02T14:49:23.619Z,10.22
2024-03-02T14:52:12.292Z,10.23
2024-03-02T14:55:01.015Z,10.24
2024-03-02T14:57:49.847Z,10.25
2024-03-02T15:00:38.652Z,10.25
2024-03-02T15:03:27.585Z,10.27
2024-03-02T15:06:16.240Z,10.28
2024-03-02T15:09:05.135Z,10.27
2024-03-02T15:11:53.866Z,10.24
2024-03-02T15:14:48.194Z,10.20
2024-03-02T15:17:36.880Z,10.19
2024-03-02T15:20:25.559Z,10.19
2024-03-02T15:23:14.763Z,10.21
2024-03-02T15:26:03.911Z,10.19
2024-03-02T15:28:54.649Z,10.19
2024-03-02T15:31:43.624Z,10.16
2024-03-02T15:34:32.910Z,10.12
2024-03-02T15:37:21.623Z,10.08
2024-03-02T15:40:10.911Z,10.05
2024-03-02T15:42:59.670Z,10.02
2024-03-02T15:45:48.608Z,10.00
2024-03-02T15:48:37.565Z,9.99
2024-03-02T15:51:26.187Z,9.96
2024-03-02T15:54:14.781Z,9.91
2024-03-02T15:57:03.644Z,9.86
2024-03-02T15:59:52.516Z,9.80
2024-03-02T16:02:41.329Z,9.73
2024-03-02T16:05:30.113Z,9.65
2024-03-02T16:08:18.765Z,9.58
2024-03-02T16:11:07.386Z,9.52
2024-03-02T16:13:56.051Z,9.48
2024-03-02T16:16:47.103Z,9.45
2024-03-02T16:19:38.481Z,9.42
2024-03-02T16:22:27.292Z,9.38
2024-03-02T16:25:16.023Z,9.32
2024-03-02T16:28:08.548Z,9.26
2024-03-02T16:30:57.287Z,9.20
2024-03-02T16:33:48.629Z,9.14
2024-03-02T16:36:37.866Z,9.09
2024-03-02T16:39:27.891Z,9.03
2024-03-02T16:42:17.493Z,9.01
2024-03-02T16:45:06.489Z,8.96
2024-03-02T16:47:55.212Z,8.93
2024-03-02T16:50:43.857Z,8.91
2024-03-02T16:53:32.484Z,8.88
2024-03-02T16:56:21.116Z,8.85
2024-03-02T16:59:10.419Z,8.82
2024-03-02T17:02:00.104Z,8.77
2024-03-02T17:04:48.759Z,8.74
2024-03-02T17:07:37.370Z,8.74
2024-03-02T17:10:26.489Z,8.73
2024-03-02T17:13:15.383Z,8.72
2024-03-02T17:16:04.422Z,8.72
2024-03-02T17:18:53.817Z,8.69
2024-03-02T17:21:42.830Z,8.68
2024-03-02T17:24:31.531Z,8.66
2024-03-02T17:27:20.335Z,8.65
2024-03-02T17:30:09.675Z,8.63
2024-03-02T17:32:58.294Z,8.62
2024-03-02T17:35:48.601Z,8.59
2024-03-02T17:38:37.232Z,8.58
2024-03-02T17:41:26.058Z,8.56
2024-03-02T17:44:16.218Z,8.53
2024-03-02T17:47:05.498Z,8.48
2024-03-02T17:49:54.368Z,8.45
2024-03-02T17:52:43.758Z,8.44
2024-03-02T17:55:32.397Z,8.42
2024-03-02T17:58:21.050Z,8.40
2024-03-02T18:01:12.448Z,8.38
2024-03-02T18:04:01.186Z,8.36
2024-03-02T18:06:50.127Z,8.33
2024-03-02T18:09:38.915Z,8.32
2024-03-02T18:12:28.584Z,8.31
2024-03-02T18:15:17.366Z,8.30
2024-03-02T18:18:07.468Z,8.30
2024-03-02T18:20:56.031Z,8.28
2024-03-02T18:23:44.699Z,8.27
2024-03-02T18:26:35.474Z,8.24
2024-03-02T18:29:24.160Z,8.22
2024-03-02T18:32:15.008Z,8.21
2024-03-02T18:35:06.397Z,8.20
2024-03-02T18:37:54.965Z,8.19
2024-03-02T18:40:48.328Z,8.19
2024-03-02T18:43:36.939Z,8.18
2024-03-02T18:46:25.593Z,8.16
2024-03-02T18:49:14.262Z,8.15
2024-03-02T18:52:03.224Z,8.13
2024-03-02T18:54:51.997Z,8.09
2024-03-02T18:57:40.570Z,8.05
2024-03-02T19:00:29.638Z,8.03
2024-03-02T19:03:18.441Z,7.99
2024-03-02T19:06:09.037Z,7.97
2024-03-02T19:08:59.352Z,7.95
2024-03-02T19:11:48.135Z,7.94
2024-03-02T19:14:36.801Z,7.94
2024-03-02T19:17:25.438Z,7.90
2024-03-02T19:20:14.292Z,7.86
2024-03-02T19:23:03.164Z,7.82
2024-03-02T19:25:51.727Z,7.79
2024-03-02T19:28:40.330Z,7.76
2024-03-02T19:31:28.898Z,7.74
2024-03-02T19:34:19.235Z,7.73
2024-03-02T19:37:08.379Z,7.71
2024-03-02T19:39:58.501Z,7.69
2024-03-02T19:42:47.745Z,7.64
2024-03-02T19:45:36.590Z,7.59
2024-03-02T19:48:25.287Z,7.55
2024-03-02T19:51:13.930Z,7.51
2024-03-02T19:54:04.453Z,7.49
2024-03-02T19:56:55.773Z,7.48
2024-03-02T19:59:44.719Z,7.47
2024-03-02T20:02:33.417Z,7.45
2024-03-02T20:05:22.738Z,7.44
2024-03-02T20:08:11.625Z,7.40
2024-03-02T20:11:04.314Z,7.36
2024-03-02T20:13:52.865Z,7.33
2024-03-02T20:16:45.858Z,7.30
2024-03-02T20:19:34.473Z,7.26
2024-03-02T20:22:23.054Z,7.23
2024-03-02T20:25:13.577Z,7.22
2024-03-02T20:28:02.402Z,7.21
2024-03-02T20:30:51.375Z,7.20
2024-03-02T20:33:40.098Z,7.18
2024-03-02T20:36:28.865Z,7.17
2024-03-02T20:39:18.662Z,7.12
2024-03-02T20:42:07.325Z,7.10
2024-03-02T20:44:56.174Z,7.07
2024-03-02T20:47:46.410Z,7.05
2024-03-02T20:50:35.499Z,7.03
2024-03-02T20:53:24.256Z,7.00
2024-03-02T20:56:12.892Z,6.96
2024-03-02T20:59:01.536Z,6.93
2024-03-02T21:01:50.266Z,6.89
2024-03-02T21:04:38.945Z,6.85
2024-03-02T21:07:27.684Z,6.80
2024-03-02T21:10:17.006Z,6.78
2024-03-02T21:13:05.652Z,6.78
2024-03-02T21:15:54.318Z,6.78
2024-03-02T21:18:43.613Z,6.77
2024-03-02T21:21:32.869Z,6.75
2024-03-02T21:24:21.696Z,6.70
2024-03-02T21:27:12.451Z,6.65
2024-03-02T21:30:01.162Z,6.60
2024-03-02T21:32:53.052Z,6.57
2024-03-02T21:35:41.817Z,6.54
2024-03-02T21:38:31.247Z,6.52
2024-03-02T21:41:20.197Z,6.50
2024-03-02T21:44:09.174Z,6.52
2024-03-02T21:46:57.749Z,6.51
2024-03-02T21:49:46.978Z,6.49
2024-03-02T21:52:35.715Z,6.46
2024-03-02T21:55:27.352Z,6.44
2024-03-02T21:58:16.104Z,6.41
2024-03-02T22:01:04.902Z,6.41
2024-03-02T22:03:54.503Z,6.39
2024-03-02T22:06:43.093Z,6.39
2024-03-02T22:09:31.698Z,6.39
2024-03-02T22:12:20.283Z,6.39
2024-03-02T22:15:09.301Z,6.39
2024-03-02T22:17:59.831Z,6.38
2024-03-02T22:20:48.662Z,6.36
2024-03-02T22:23:39.325Z,6.32
2024-03-02T22:26:27.894Z,6.28
2024-03-02T22:29:16.499Z,6.27
2024-03-02T22:32:06.883Z,6.24
2024-03-02T22:34:55.570Z,6.23
2024-03-02T22:37:44.236Z,6.25
2024-03-02T22:40:32.858Z,6.24
2024-03-02T22:43:21.538Z,6.25
2024-03-02T22:46:13.739Z,6.27
2024-03-02T22:49:02.443Z,6.27
2024-03-02T22:51:52.469Z,6.24
2024-03-02T22:54:41.201Z,6.21
2024-03-02T22:57:30.109Z,6.19
2024-03-02T23:00:50.716Z,6.18
2024-03-02T23:03:41.050Z,6.18
2024-03-02T23:06:29.846Z,6.18
2024-03-02T23:09:18.529Z,6.19
2024-03-02T23:12:07.289Z,6.20
2024-03-02T23:14:55.875Z,6.20
2024-03-02T23:17:44.564Z,6.19
2024-03-02T23:20:33.114Z,6.18
2024-03-02T23:23:21.682Z,6.16
2024-03-02T23:26:12.300Z,6.14
2024-03-02T23:29:00.956Z,6.13
2024-03-02T23:31:49.725Z,6.12
2024-03-02T23:34:39.291Z,6.13
2024-03-02T23:37:31.302Z,6.11
2024-03-02T23:40:39.021Z,6.02
2024-03-02T23:43:27.607Z,5.93
2024-03-02T23:46:16.217Z,5.89
2024-03-02T23:49:04.823Z,5.88
2024-03-02T23:51:55.122Z,5.85
2024-03-02T23:54:43.876Z,5.85
2024-03-02T23:57:32.745Z,5.86
